createdAt,value
2022-09-01T00:00:02.083Z,70.39
2022-09-01T00:02:34.162Z,70.60
2022-09-01T00:05:04.781Z,71.15
2022-09-01T00:07:32.398Z,71.39
2022-09-01T00:10:00.581Z,71.66
2022-09-01T00:12:30.340Z,72.15
2022-09-01T00:14:59.208Z,72.78
2022-09-01T00:17:28.623Z,73.19
2022-09-01T00:19:56.005Z,74.30
2022-09-01T00:22:23.479Z,75.07
2022-09-01T00:24:51.089Z,76.93
2022-09-01T00:27:18.419Z,77.96
2022-09-01T00:29:46.578Z,78.91
2022-09-01T00:32:14.113Z,78.96
2022-09-01T00:34:41.472Z,79.23
2022-09-01T00:37:10.875Z,80.40
2022-09-01T00:39:38.229Z,81.03
2022-09-01T00:42:06.071Z,82.40
2022-09-01T00:44:36.571Z,82.84
2022-09-01T00:47:06.924Z,83.96
2022-09-01T00:49:41.108Z,84.57
2022-09-01T00:52:14.302Z,85.47
2022-09-01T00:54:45.762Z,85.77
2022-09-01T00:57:13.980Z,86.06
2022-09-01T00:59:49.583Z,87.09
2022-09-01T01:02:17.711Z,87.56
2022-09-01T01:04:46.359Z,88.55
2022-09-01T01:07:14.512Z,89.91
2022-09-01T01:09:43.867Z,90.48
2022-09-01T01:12:13.874Z,91.12
2022-09-01T01:14:44.060Z,92.22
2022-09-01T01:17:14.812Z,92.61
2022-09-01T01:20:12.092Z,93.02
2022-09-01T01:23:11.351Z,94.06
2022-09-01T01:25:49.059Z,94.65
2022-09-01T01:28:31.063Z,96.13
2022-09-01T01:31:06.282Z,97.21
2022-09-01T01:33:42.823Z,98.66
2022-09-01T01:36:24.960Z,99.82
2022-09-01T01:38:53.259Z,100.00
2022-09-01T01:41:26.723Z,100.00
2022-09-01T01:43:54.155Z,100.00
2022-09-01T01:46:22.820Z,100.00
2022-09-01T01:48:52.533Z,100.00
2022-09-01T01:51:21.432Z,100.00
2022-09-01T01:53:52.791Z,100.00
2022-09-01T01:56:22.964Z,100.00
2022-09-01T01:58:56.287Z,100.00
2022-09-01T02:01:28.882Z,100.00
2022-09-01T02:03:57.852Z,100.00
2022-09-01T02:06:28.591Z,100.00
2022-09-01T02:08:58.128Z,100.00
2022-09-01T02:11:27.347Z,100.00
2022-09-01T02:13:58.476Z,100.00
2022-09-01T02:16:29.468Z,100.00
2022-09-01T02:18:56.978Z,100.00
2022-09-01T02:21:26.579Z,100.00
2022-09-01T02:24:01.478Z,100.00
2022-09-01T02:26:34.616Z,100.00
2022-09-01T02:29:04.876Z,100.00
2022-09-01T02:31:35.824Z,100.00
2022-09-01T02:34:04.435Z,100.00
2022-09-01T02:36:35.201Z,100.00
2022-09-01T02:39:02.603Z,100.00
2022-09-01T02:41:34.557Z,100.00
2022-09-01T02:44:11.845Z,100.00
2022-09-01T02:46:47.251Z,100.00
2022-09-01T02:49:28.323Z,100.00
2022-09-01T02:51:59.622Z,100.00
2022-09-01T02:54:28.857Z,100.00
2022-09-01T02:56:56.761Z,100.00
2022-09-01T02:59:27.603Z,100.00
2022-09-01T03:01:55.149Z,100.00
2022-09-01T03:04:24.227Z,100.00
2022-09-01T03:06:55.178Z,100.00
2022-09-01T03:09:23.398Z,100.00
2022-09-01T03:11:53.364Z,100.00
2022-09-01T03:14:22.101Z,100.00
2022-09-01T03:16:50.388Z,100.00
2022-09-01T03:19:19.216Z,100.00
2022-09-01T03:21:47.466Z,100.00
2022-09-01T03:24:22.045Z,100.00
2022-09-01T03:26:50.995Z,100.00
2022-09-01T03:29:19.135Z,100.00
2022-09-01T03:31:47.032Z,100.00
2022-09-01T03:34:19.402Z,100.00
2022-09-01T03:36:50.617Z,100.00
2022-09-01T03:39:18.951Z,100.00
2022-09-01T03:41:46.466Z,100.00
2022-09-01T03:44:16.607Z,100.00
2022-09-01T03:46:45.019Z,100.00
2022-09-01T03:49:15.599Z,100.00
2022-09-01T03:51:45.282Z,100.00
2022-09-01T03:54:12.993Z,100.00
2022-09-01T03:56:41.791Z,100.00
2022-09-01T03:59:17.054Z,100.00
2022-09-01T04:01:46.199Z,100.00
2022-09-01T04:04:15.074Z,100.00
2022-09-01T04:06:45.157Z,100.00
2022-09-01T04:09:13.132Z,100.00
2022-09-01T04:11:45.805Z,100.00
2022-09-01T04:14:15.246Z,100.00
2022-09-01T04:17:02.552Z,100.00
2022-09-01T04:19:37.078Z,100.00
2022-09-01T04:22:08.267Z,100.00
2022-09-01T04:24:35.859Z,100.00
2022-09-01T04:27:03.962Z,100.00
2022-09-01T04:29:34.295Z,96.98
2022-09-01T04:32:07.472Z,90.99
2022-09-01T04:34:38.086Z,88.64
2022-09-01T04:37:14.906Z,87.09
2022-09-01T04:39:52.534Z,85.42
2022-09-01T04:42:24.423Z,81.90
2022-09-01T04:44:54.862Z,83.20
2022-09-01T04:47:35.366Z,86.82
2022-09-01T04:50:14.876Z,89.81
2022-09-01T04:52:43.737Z,88.49
2022-09-01T04:55:17.692Z,87.96
2022-09-01T04:57:49.813Z,85.37
2022-09-01T05:00:22.878Z,82.23
2022-09-01T05:02:53.442Z,79.27
2022-09-01T05:05:22.577Z,76.61
2022-09-01T05:07:53.960Z,74.58
2022-09-01T05:10:30.154Z,73.53
2022-09-01T05:12:57.895Z,73.11
2022-09-01T05:15:27.352Z,73.47
2022-09-01T05:18:02.442Z,73.38
2022-09-01T05:20:31.286Z,74.89
2022-09-01T05:22:58.669Z,78.67
2022-09-01T05:25:27.625Z,79.98
2022-09-01T05:28:03.276Z,81.82
2022-09-01T05:30:34.153Z,83.95
2022-09-01T05:33:01.745Z,85.49
2022-09-01T05:35:32.837Z,86.16
2022-09-01T05:38:02.565Z,88.08
2022-09-01T05:40:31.139Z,88.49
2022-09-01T05:43:02.056Z,89.38
2022-09-01T05:45:44.779Z,90.74
2022-09-01T05:48:23.907Z,91.23
2022-09-01T05:50:53.197Z,91.18
2022-09-01T05:53:25.422Z,90.82
2022-09-01T05:55:57.174Z,91.42
2022-09-01T05:59:22.531Z,91.36
2022-09-01T06:01:22.280Z,90.70
2022-09-01T06:03:57.993Z,91.01
2022-09-01T06:06:28.490Z,89.81
2022-09-01T06:08:59.110Z,87.05
2022-09-01T06:11:39.066Z,85.69
2022-09-01T06:14:13.073Z,79.82
2022-09-01T06:16:40.682Z,72.99
2022-09-01T06:19:09.911Z,67.10
2022-09-01T06:21:41.743Z,65.09
2022-09-01T06:24:13.194Z,64.81
2022-09-01T06:26:42.066Z,64.37
2022-09-01T06:29:15.624Z,63.96
2022-09-01T06:31:45.957Z,65.36
2022-09-01T06:34:17.811Z,68.02
2022-09-01T06:36:47.936Z,68.51
2022-09-01T06:39:24.104Z,67.39
2022-09-01T06:41:53.392Z,66.53
2022-09-01T06:44:25.001Z,67.85
2022-09-01T06:46:53.298Z,68.47
2022-09-01T06:49:32.619Z,68.47
2022-09-01T06:52:12.207Z,66.41
2022-09-01T06:54:44.358Z,65.23
2022-09-01T07:00:01.467Z,64.30
2022-09-01T07:02:33.665Z,65.12
2022-09-01T07:05:02.864Z,65.93
2022-09-01T07:10:26.001Z,67.69
2022-09-01T07:13:11.832Z,66.94
2022-09-01T07:19:16.204Z,67.47
2022-09-01T07:22:35.196Z,67.68
2022-09-01T07:24:42.325Z,66.40
2022-09-01T07:27:10.996Z,69.81
2022-09-01T07:29:43.884Z,69.20
2022-09-01T07:35:06.199Z,68.66
2022-09-01T07:43:23.244Z,69.08
2022-09-01T07:46:00.707Z,68.39
2022-09-01T07:51:36.386Z,66.55
2022-09-01T07:54:14.131Z,65.34
2022-09-01T07:56:44.709Z,65.06
2022-09-01T08:02:14.376Z,61.88
2022-09-01T08:04:43.466Z,61.64
2022-09-01T08:07:15.352Z,60.95
2022-09-01T08:09:46.228Z,60.04
2022-09-01T08:12:14.402Z,60.04
2022-09-01T08:15:14.057Z,60.05
2022-09-01T08:18:05.268Z,60.75
2022-09-01T08:20:48.454Z,61.62
2022-09-01T08:23:21.324Z,60.42
2022-09-01T08:25:56.434Z,61.45
2022-09-01T08:28:27.215Z,61.71
2022-09-01T08:30:55.627Z,62.30
2022-09-01T08:33:27.039Z,63.08
2022-09-01T08:35:55.449Z,62.85
2022-09-01T08:38:23.126Z,62.12
2022-09-01T08:40:57.109Z,61.55
2022-09-01T08:43:32.466Z,60.99
2022-09-01T08:46:11.375Z,60.98
2022-09-01T08:51:40.584Z,58.99
2022-09-01T08:54:29.886Z,59.19
2022-09-01T08:57:15.516Z,59.39
2022-09-01T08:59:43.755Z,59.12
2022-09-01T09:03:40.475Z,58.07
2022-09-01T09:06:18.221Z,58.90
2022-09-01T09:09:05.855Z,58.25
2022-09-01T09:12:02.678Z,58.14
2022-09-01T09:15:02.330Z,58.54
2022-09-01T09:17:36.022Z,60.91
2022-09-01T09:20:06.287Z,60.99
2022-09-01T09:22:34.299Z,60.81
2022-09-01T09:25:19.206Z,61.38
2022-09-01T09:27:49.814Z,60.97
2022-09-01T09:30:23.381Z,61.00
2022-09-01T09:35:47.332Z,61.45
2022-09-01T09:41:19.971Z,59.13
2022-09-01T09:44:22.805Z,57.25
2022-09-01T09:46:50.755Z,57.31
2022-09-01T09:49:36.112Z,56.45
2022-09-01T09:52:19.528Z,55.93
2022-09-01T09:55:07.516Z,54.71
2022-09-01T09:57:43.164Z,54.54
2022-09-01T10:01:34.295Z,54.74
2022-09-01T10:04:09.724Z,55.12
2022-09-01T10:06:48.264Z,53.07
2022-09-01T10:09:38.815Z,49.94
2022-09-01T10:12:07.355Z,47.34
2022-09-01T10:14:53.303Z,46.78
2022-09-01T10:17:30.931Z,45.99
2022-09-01T10:20:07.050Z,46.94
2022-09-01T10:22:48.560Z,50.23
2022-09-01T10:25:29.189Z,49.91
2022-09-01T10:28:11.542Z,46.81
2022-09-01T10:30:43.132Z,45.68
2022-09-01T10:33:19.850Z,44.96
2022-09-01T10:35:52.029Z,45.07
2022-09-01T10:38:25.206Z,45.04
2022-09-01T10:41:14.777Z,46.03
2022-09-01T10:43:51.116Z,45.02
2022-09-01T10:46:26.230Z,44.83
2022-09-01T10:49:04.399Z,45.10
2022-09-01T10:51:50.447Z,44.69
2022-09-01T10:54:51.127Z,44.06
2022-09-01T10:57:19.105Z,44.50
2022-09-01T10:59:56.037Z,44.30
2022-09-01T11:02:35.940Z,45.31
2022-09-01T11:05:11.851Z,45.71
2022-09-01T11:10:49.780Z,45.19
2022-09-01T11:13:36.728Z,44.44
2022-09-01T11:16:46.695Z,43.73
2022-09-01T11:19:48.660Z,42.91
2022-09-01T11:22:26.415Z,42.30
2022-09-01T11:25:40.624Z,41.67
2022-09-01T11:28:19.627Z,41.30
2022-09-01T11:31:03.221Z,41.36
2022-09-01T11:33:53.976Z,39.67
2022-09-01T11:36:24.452Z,38.55
2022-09-01T11:39:00.398Z,38.96
2022-09-01T11:41:44.810Z,38.60
2022-09-01T11:44:25.620Z,38.26
2022-09-01T11:47:08.583Z,37.72
2022-09-01T11:49:48.157Z,38.15
2022-09-01T11:52:20.521Z,38.98
2022-09-01T11:54:48.801Z,38.94
2022-09-01T11:57:31.882Z,38.82
2022-09-01T12:00:01.761Z,38.87
2022-09-01T12:02:36.793Z,38.94
2022-09-01T12:05:24.935Z,38.30
2022-09-01T12:08:00.942Z,37.37
2022-09-01T12:10:34.830Z,37.44
2022-09-01T12:13:13.005Z,37.56
2022-09-01T12:16:14.022Z,37.40
2022-09-01T12:18:39.894Z,37.86
2022-09-01T12:21:11.638Z,36.81
2022-09-01T12:23:43.266Z,36.97
2022-09-01T12:26:19.940Z,37.05
2022-09-01T12:28:49.919Z,37.48
2022-09-01T12:31:23.772Z,36.41
2022-09-01T12:33:56.332Z,36.72
2022-09-01T12:36:29.935Z,36.16
2022-09-01T12:39:20.818Z,36.05
2022-09-01T12:42:04.365Z,36.88
2022-09-01T12:44:54.405Z,36.66
2022-09-01T12:47:52.537Z,36.23
2022-09-01T12:50:19.789Z,36.12
2022-09-01T12:52:53.483Z,36.75
2022-09-01T12:58:10.731Z,34.99
2022-09-01T13:01:00.480Z,35.66
2022-09-01T13:03:29.758Z,35.92
2022-09-01T13:06:02.212Z,36.08
2022-09-01T13:08:36.043Z,36.02
2022-09-01T13:11:14.722Z,36.54
2022-09-01T13:13:43.909Z,36.80
2022-09-01T13:16:15.608Z,36.63
2022-09-01T13:24:11.536Z,37.19
2022-09-01T13:26:40.283Z,37.43
2022-09-01T13:29:10.087Z,38.27
2022-09-01T13:32:16.642Z,38.10
2022-09-01T13:34:27.955Z,37.83
2022-09-01T13:36:55.870Z,37.48
2022-09-01T13:39:27.719Z,37.85
2022-09-01T13:41:58.816Z,37.80
2022-09-01T13:44:28.083Z,37.42
2022-09-01T13:46:59.547Z,37.80
2022-09-01T13:50:05.573Z,37.71
2022-09-01T13:52:18.763Z,37.81
2022-09-01T13:54:47.960Z,38.61
2022-09-01T13:57:18.926Z,38.55
2022-09-01T13:59:49.425Z,38.63
2022-09-01T14:02:19.346Z,38.50
2022-09-01T14:04:48.391Z,38.55
2022-09-01T14:07:16.426Z,38.46
2022-09-01T14:09:47.805Z,38.61
2022-09-01T14:12:15.242Z,38.69
2022-09-01T14:17:30.985Z,38.23
2022-09-01T14:20:00.085Z,39.04
2022-09-01T14:22:38.617Z,37.80
2022-09-01T14:25:07.453Z,38.12
2022-09-01T14:27:40.954Z,38.04
2022-09-01T14:30:13.516Z,38.63
2022-09-01T14:32:41.371Z,38.30
2022-09-01T14:35:16.610Z,38.94
2022-09-01T14:37:52.974Z,38.86
2022-09-01T14:40:27.158Z,38.25
2022-09-01T14:42:56.162Z,37.87
2022-09-01T14:45:27.005Z,37.83
2022-09-01T14:48:02.012Z,38.14
2022-09-01T14:50:33.599Z,38.28
2022-09-01T14:53:02.744Z,38.11
2022-09-01T14:55:30.965Z,38.36
2022-09-01T14:58:00.164Z,38.58
2022-09-01T15:00:32.293Z,38.26
2022-09-01T15:03:00.110Z,38.44
2022-09-01T15:05:29.451Z,38.25
2022-09-01T15:08:17.015Z,38.55
2022-09-01T15:13:38.325Z,38.49
2022-09-01T15:16:19.847Z,38.67
2022-09-01T15:18:51.412Z,38.53
2022-09-01T15:21:28.852Z,38.68
2022-09-01T15:24:03.175Z,38.73
2022-09-01T15:26:34.981Z,38.90
2022-09-01T15:29:16.880Z,39.30
2022-09-01T15:31:47.766Z,39.52
2022-09-01T15:34:19.166Z,39.39
2022-09-01T15:37:01.026Z,39.93
2022-09-01T15:39:37.631Z,40.14
2022-09-01T15:42:10.651Z,40.48
2022-09-01T15:44:52.617Z,40.73
2022-09-01T15:47:26.468Z,40.88
2022-09-01T15:49:54.022Z,41.12
2022-09-01T15:52:23.110Z,41.00
2022-09-01T15:54:51.108Z,40.88
2022-09-01T15:57:19.811Z,40.79
2022-09-01T15:59:49.219Z,40.37
2022-09-01T16:02:21.414Z,40.52
2022-09-01T16:04:50.495Z,41.03
2022-09-01T16:07:18.888Z,41.64
2022-09-01T16:09:47.612Z,41.72
2022-09-01T16:12:16.409Z,41.89
2022-09-01T16:14:47.799Z,42.41
2022-09-01T16:17:30.533Z,42.29
2022-09-01T16:20:12.949Z,42.35
2022-09-01T16:22:54.924Z,42.44
2022-09-01T16:25:30.955Z,42.90
2022-09-01T16:28:05.977Z,42.80
2022-09-01T16:30:36.664Z,42.74
2022-09-01T16:33:05.166Z,42.96
2022-09-01T16:35:44.990Z,42.98
2022-09-01T16:38:37.044Z,43.27
2022-09-01T16:41:13.028Z,43.10
2022-09-01T16:44:20.317Z,43.10
2022-09-01T16:47:00.963Z,43.00
2022-09-01T16:49:39.202Z,43.23
2022-09-01T16:52:14.399Z,43.24
2022-09-01T16:55:13.107Z,43.27
2022-09-01T16:58:10.416Z,43.43
2022-09-01T17:01:10.388Z,43.22
2022-09-01T17:03:55.510Z,42.96
2022-09-01T17:06:34.358Z,43.13
2022-09-01T17:09:13.199Z,42.88
2022-09-01T17:11:49.285Z,42.87
2022-09-01T17:14:28.053Z,42.41
2022-09-01T17:17:12.839Z,42.58
2022-09-01T17:19:46.086Z,42.72
2022-09-01T17:22:18.748Z,42.66
2022-09-01T17:24:53.114Z,42.41
2022-09-01T17:27:31.075Z,41.76
2022-09-01T17:29:59.035Z,41.72
2022-09-01T17:32:56.149Z,42.07
2022-09-01T17:39:34.041Z,42.64
2022-09-01T17:45:39.793Z,42.69
2022-09-01T17:49:02.883Z,43.29
2022-09-01T17:51:57.887Z,43.14
2022-09-01T17:54:58.014Z,42.66
2022-09-01T17:57:41.242Z,42.47
2022-09-01T18:06:49.735Z,42.77
2022-09-01T18:09:26.272Z,43.10
2022-09-01T18:12:07.293Z,43.35
2022-09-01T18:14:47.099Z,43.57
2022-09-01T18:17:36.336Z,43.17
2022-09-01T18:20:28.803Z,43.52
2022-09-01T18:23:24.736Z,43.54
2022-09-01T18:29:16.208Z,43.84
2022-09-01T18:32:03.815Z,44.12
2022-09-01T18:34:58.213Z,43.80
2022-09-01T18:37:42.954Z,43.85
2022-09-01T18:40:36.009Z,44.40
2022-09-01T18:43:50.321Z,43.55
2022-09-01T18:46:49.559Z,43.90
2022-09-01T18:49:41.851Z,44.39
2022-09-01T18:52:19.838Z,44.63
2022-09-01T18:57:48.498Z,44.62
2022-09-01T19:00:25.623Z,44.64
2022-09-01T19:03:11.334Z,45.17
2022-09-01T19:06:09.317Z,45.23
2022-09-01T19:09:09.051Z,45.22
2022-09-01T19:11:39.603Z,45.18
2022-09-01T19:17:11.429Z,45.54
2022-09-01T19:19:49.302Z,45.53
2022-09-01T19:22:22.157Z,45.52
2022-09-01T19:25:20.338Z,45.29
2022-09-01T19:28:10.095Z,45.01
2022-09-01T19:33:47.109Z,44.85
2022-09-01T19:36:48.735Z,44.67
2022-09-01T19:39:53.807Z,45.22
2022-09-01T19:45:22.699Z,44.68
2022-09-01T19:48:12.380Z,43.83
2022-09-01T19:54:21.931Z,43.89
2022-09-01T19:57:04.247Z,44.06
2022-09-01T19:59:43.302Z,44.38
2022-09-01T20:02:42.339Z,44.17
2022-09-01T20:05:27.731Z,44.31
2022-09-01T20:08:03.513Z,44.64
2022-09-01T20:10:59.819Z,44.82
2022-09-01T20:13:54.281Z,44.78
2022-09-01T20:19:43.156Z,45.38
2022-09-01T20:22:31.473Z,45.25
2022-09-01T20:25:10.375Z,45.67
2022-09-01T20:28:18.920Z,46.34
2022-09-01T20:31:06.696Z,46.62
2022-09-01T20:33:38.541Z,46.70
2022-09-01T20:36:17.841Z,46.89
2022-09-01T20:39:19.859Z,47.49
2022-09-01T20:42:20.966Z,47.87
2022-09-01T20:44:56.811Z,48.42
2022-09-01T20:47:28.112Z,48.88
2022-09-01T20:50:07.109Z,48.61
2022-09-01T20:52:57.001Z,48.74
2022-09-01T20:55:38.098Z,48.28
2022-09-01T20:58:20.689Z,47.17
2022-09-01T21:00:59.055Z,47.41
2022-09-01T21:03:45.557Z,47.47
2022-09-01T21:06:42.453Z,48.56
2022-09-01T21:09:16.595Z,48.70
2022-09-01T21:11:51.527Z,48.07
2022-09-01T21:14:47.807Z,48.63
2022-09-01T21:17:32.632Z,48.75
2022-09-01T21:20:10.237Z,49.34
2022-09-01T21:22:37.985Z,48.92
2022-09-01T21:25:18.994Z,48.47
2022-09-01T21:27:56.653Z,48.92
2022-09-01T21:30:26.544Z,49.79
2022-09-01T21:32:57.282Z,50.41
2022-09-01T21:35:25.097Z,51.01
2022-09-01T21:37:53.461Z,51.60
2022-09-01T21:40:23.628Z,51.91
2022-09-01T21:43:01.430Z,51.69
2022-09-01T21:45:30.803Z,50.92
2022-09-01T21:47:58.623Z,51.04
2022-09-01T21:50:26.575Z,51.71
2022-09-01T21:52:56.153Z,51.89
2022-09-01T21:55:25.616Z,52.27
2022-09-01T21:57:54.079Z,52.47
2022-09-01T22:00:25.207Z,51.85
2022-09-01T22:02:53.660Z,51.77
2022-09-01T22:05:21.937Z,52.06
2022-09-01T22:07:51.908Z,51.83
2022-09-01T22:10:28.276Z,51.97
2022-09-01T22:12:56.917Z,51.70
2022-09-01T22:15:26.161Z,52.04
2022-09-01T22:17:54.708Z,51.57
2022-09-01T22:20:26.088Z,51.93
2022-09-01T22:22:56.848Z,52.05
2022-09-01T22:25:24.787Z,52.39
2022-09-01T22:27:52.424Z,52.75
2022-09-01T22:30:20.011Z,53.20
2022-09-01T22:32:48.124Z,53.59
2022-09-01T22:35:16.824Z,54.48
2022-09-01T22:37:45.209Z,54.82
2022-09-01T22:40:14.968Z,54.20
2022-09-01T22:42:43.274Z,53.97
2022-09-01T22:45:13.512Z,54.11
2022-09-01T22:47:43.302Z,54.31
2022-09-01T22:50:11.759Z,53.64
2022-09-01T22:52:42.171Z,53.85
2022-09-01T22:55:10.967Z,53.96
2022-09-01T22:57:39.005Z,54.04
2022-09-01T23:00:14.312Z,54.39
2022-09-01T23:02:42.927Z,54.35
2022-09-01T23:05:10.698Z,55.09
2022-09-01T23:07:39.644Z,55.84
2022-09-01T23:10:08.589Z,56.33
2022-09-01T23:12:38.102Z,56.34
2022-09-01T23:15:06.538Z,56.35
2022-09-01T23:17:36.746Z,56.50
2022-09-01T23:20:07.980Z,56.11
2022-09-01T23:22:37.875Z,56.92
2022-09-01T23:25:06.566Z,57.20
2022-09-01T23:27:37.623Z,57.06
2022-09-01T23:30:07.827Z,57.01
2022-09-01T23:32:35.929Z,57.81
2022-09-01T23:35:04.723Z,57.68
2022-09-01T23:37:32.288Z,57.86
2022-09-01T23:40:00.275Z,58.01
2022-09-01T23:42:27.838Z,58.41
2022-09-01T23:44:55.344Z,58.79
2022-09-01T23:47:22.905Z,59.24
2022-09-01T23:49:50.534Z,59.39
2022-09-01T23:52:18.187Z,59.20
2022-09-01T23:54:45.909Z,59.57
2022-09-01T23:57:13.733Z,59.76
2022-09-01T23:59:42.442Z,59.76
